createdAt,value
2019-05-05T00:02:14.727Z,60.30
2019-05-05T00:04:54.405Z,60.20
2019-05-05T00:07:27.031Z,60.10
2019-05-05T00:09:55.850Z,60.10
2019-05-05T00:12:55.775Z,60.10
2019-05-05T00:15:42.353Z,60.20
2019-05-05T00:18:11.655Z,60.10
2019-05-05T00:20:40.493Z,60.20
2019-05-05T00:23:09.273Z,60.40
2019-05-05T00:25:38.087Z,60.60
2019-05-05T00:28:06.855Z,60.30
2019-05-05T00:30:35.636Z,60.10
2019-05-05T00:33:05.587Z,60.00
2019-05-05T00:35:34.577Z,59.80
2019-05-05T00:38:05.075Z,59.70
2019-05-05T00:40:35.284Z,59.70
2019-05-05T00:43:05.344Z,59.80
2019-05-05T00:45:35.325Z,59.70
2019-05-05T00:48:14.835Z,59.80
2019-05-05T00:50:44.982Z,59.90
2019-05-05T00:53:14.565Z,60.10
2019-05-05T00:55:44.293Z,60.10
2019-05-05T00:58:14.306Z,60.10
2019-05-05T01:00:54.880Z,60.00
2019-05-05T01:03:25.098Z,60.10
2019-05-05T01:06:05.395Z,60.10
2019-05-05T01:08:35.279Z,60.10
2019-05-05T01:11:04.274Z,60.30
2019-05-05T01:13:35.011Z,60.40
2019-05-05T01:16:04.805Z,60.40
2019-05-05T01:18:35.153Z,60.20
2019-05-05T01:21:04.663Z,60.30
2019-05-05T01:23:34.928Z,60.00
2019-05-05T01:26:05.117Z,59.90
2019-05-05T01:28:35.530Z,59.90
2019-05-05T01:31:08.265Z,60.10
2019-05-05T01:33:47.933Z,60.20
2019-05-05T01:36:16.692Z,60.10
2019-05-05T01:38:55.337Z,60.10
2019-05-05T01:41:45.202Z,60.10
2019-05-05T01:44:15.257Z,60.10
2019-05-05T01:46:44.571Z,60.10
2019-05-05T01:49:14.658Z,60.10
2019-05-05T01:51:44.742Z,60.30
2019-05-05T01:54:14.457Z,61.40
2019-05-05T01:56:44.547Z,60.30
2019-05-05T01:59:14.405Z,60.30
2019-05-05T02:01:44.577Z,60.00
2019-05-05T02:04:14.482Z,59.90
2019-05-05T02:06:44.278Z,59.90
2019-05-05T02:09:15.740Z,60.10
2019-05-05T02:11:45.280Z,60.20
2019-05-05T02:14:15.617Z,60.10
2019-05-05T02:16:45.218Z,60.00
2019-05-05T02:19:14.338Z,60.00
2019-05-05T02:21:45.188Z,60.00
2019-05-05T02:24:14.472Z,60.10
2019-05-05T02:26:45.420Z,60.10
2019-05-05T02:29:36.031Z,60.30
2019-05-05T02:32:29.972Z,60.40
2019-05-05T02:35:00.076Z,60.30
2019-05-05T02:37:28.851Z,60.20
2019-05-05T02:40:02.965Z,59.90
2019-05-05T02:42:28.211Z,59.90
2019-05-05T02:44:59.624Z,59.90
2019-05-05T02:47:54.743Z,60.10
2019-05-05T02:50:25.137Z,60.20
2019-05-05T02:52:53.554Z,60.00
2019-05-05T02:55:23.502Z,60.00
2019-05-05T02:57:54.326Z,59.90
2019-05-05T03:00:40.669Z,60.10
2019-05-05T03:03:10.496Z,60.00
2019-05-05T03:05:39.236Z,60.10
2019-05-05T03:08:08.034Z,60.30
2019-05-05T03:10:36.796Z,60.30
2019-05-05T03:13:05.537Z,60.20
2019-05-05T03:15:48.866Z,60.30
2019-05-05T03:18:17.610Z,60.00
2019-05-05T03:20:46.380Z,59.80
2019-05-05T03:23:15.173Z,59.80
2019-05-05T03:25:44.151Z,60.10
2019-05-05T03:28:13.580Z,60.20
2019-05-05T03:30:45.317Z,60.10
2019-05-05T03:33:15.908Z,59.90
2019-05-05T03:35:44.396Z,60.00
2019-05-05T03:38:14.206Z,60.10
2019-05-05T03:40:45.560Z,60.00
2019-05-05T03:43:20.280Z,60.10
2019-05-05T03:45:54.435Z,60.30
2019-05-05T03:48:24.072Z,60.50
2019-05-05T03:50:54.025Z,60.30
2019-05-05T03:53:24.638Z,60.10
2019-05-05T03:55:54.486Z,60.00
2019-05-05T03:58:24.020Z,59.80
2019-05-05T04:01:58.202Z,59.40
2019-05-05T04:04:28.508Z,60.00
2019-05-05T04:06:57.577Z,59.90
2019-05-05T04:09:26.497Z,59.90
2019-05-05T04:11:55.255Z,59.80
2019-05-05T04:14:25.072Z,59.90
2019-05-05T04:17:24.371Z,59.90
2019-05-05T04:19:54.245Z,59.90
2019-05-05T04:22:23.776Z,60.00
2019-05-05T04:24:54.127Z,60.30
2019-05-05T04:27:23.929Z,60.30
2019-05-05T04:29:54.501Z,60.10
2019-05-05T04:32:24.460Z,60.00
2019-05-05T04:34:54.462Z,59.90
2019-05-05T04:37:23.924Z,59.70
2019-05-05T04:39:53.778Z,59.60
2019-05-05T04:42:24.561Z,59.70
2019-05-05T04:44:53.815Z,59.90
2019-05-05T04:47:27.504Z,59.90
2019-05-05T04:50:14.970Z,59.80
2019-05-05T04:52:44.874Z,59.80
2019-05-05T04:55:13.893Z,59.80
2019-05-05T04:57:43.659Z,59.90
2019-05-05T05:00:13.724Z,59.80
2019-05-05T05:03:01.801Z,60.10
2019-05-05T05:05:53.641Z,60.20
2019-05-05T05:08:24.611Z,60.30
2019-05-05T05:10:54.311Z,60.20
2019-05-05T05:13:24.474Z,60.70
2019-05-05T05:15:53.980Z,59.80
2019-05-05T05:18:23.995Z,60.40
2019-05-05T05:20:54.882Z,59.70
2019-05-05T05:23:24.714Z,60.10
2019-05-05T05:25:54.432Z,59.90
2019-05-05T05:28:23.771Z,60.00
2019-05-05T05:30:54.502Z,59.90
2019-05-05T05:33:23.903Z,59.90
2019-05-05T05:35:54.571Z,59.90
2019-05-05T05:38:24.239Z,59.90
2019-05-05T05:41:13.631Z,59.80
2019-05-05T05:43:58.143Z,60.00
2019-05-05T05:46:35.900Z,59.90
2019-05-05T05:49:13.547Z,59.80
2019-05-05T05:51:44.584Z,59.60
2019-05-05T05:54:14.172Z,59.50
2019-05-05T05:56:44.687Z,59.60
2019-05-05T05:59:14.111Z,59.50
2019-05-05T06:01:43.759Z,59.60
2019-05-05T06:04:14.396Z,59.70
2019-05-05T06:06:43.889Z,59.70
2019-05-05T06:09:14.675Z,59.60
2019-05-05T06:11:43.688Z,59.60
2019-05-05T06:14:14.439Z,59.60
2019-05-05T06:16:44.639Z,59.60
2019-05-05T06:19:14.051Z,59.80
2019-05-05T06:21:43.990Z,59.90
2019-05-05T06:24:13.628Z,60.00
2019-05-05T06:26:44.532Z,60.00
2019-05-05T06:29:14.603Z,59.90
2019-05-05T06:31:44.777Z,59.80
2019-05-05T06:34:18.141Z,59.70
2019-05-05T06:36:47.075Z,59.60
2019-05-05T06:39:15.853Z,59.60
2019-05-05T06:42:09.799Z,59.80
2019-05-05T06:44:44.252Z,59.80
2019-05-05T06:47:15.591Z,59.70
2019-05-05T06:49:44.365Z,59.80
2019-05-05T06:52:14.295Z,59.60
2019-05-05T06:54:43.848Z,59.60
2019-05-05T06:57:13.745Z,59.70
2019-05-05T06:59:43.890Z,59.60
2019-05-05T07:02:14.543Z,59.90
2019-05-05T07:04:44.490Z,60.00
2019-05-05T07:07:14.560Z,59.90
2019-05-05T07:09:44.310Z,59.70
2019-05-05T07:12:13.800Z,59.50
2019-05-05T07:14:44.488Z,59.40
2019-05-05T07:17:14.158Z,59.40
2019-05-05T07:19:44.935Z,59.60
2019-05-05T07:22:14.441Z,59.80
2019-05-05T07:24:44.259Z,59.50
2019-05-05T07:27:13.816Z,59.50
2019-05-05T07:29:47.311Z,59.60
2019-05-05T07:32:16.235Z,59.70
2019-05-05T07:34:58.027Z,59.70
2019-05-05T07:37:26.821Z,59.50
2019-05-05T07:39:55.596Z,59.90
2019-05-05T07:42:24.797Z,60.00
2019-05-05T07:44:54.713Z,60.60
2019-05-05T07:47:23.878Z,59.80
2019-05-05T07:49:53.541Z,59.50
2019-05-05T07:52:23.732Z,59.40
2019-05-05T07:54:54.991Z,59.50
2019-05-05T07:57:23.790Z,59.40
2019-05-05T07:59:53.997Z,59.80
2019-05-05T08:02:23.665Z,59.50
2019-05-05T08:04:54.441Z,59.60
2019-05-05T08:07:24.003Z,59.50
2019-05-05T08:09:53.732Z,59.60
2019-05-05T08:12:24.771Z,59.60
2019-05-05T08:14:53.750Z,59.70
2019-05-05T08:17:50.531Z,59.70
2019-05-05T08:20:25.812Z,60.00
2019-05-05T08:22:54.757Z,59.90
2019-05-05T08:25:40.188Z,59.90
2019-05-05T08:28:15.664Z,59.50
2019-05-05T08:31:03.962Z,59.60
2019-05-05T08:33:33.597Z,59.70
2019-05-05T08:36:04.418Z,59.60
2019-05-05T08:38:34.795Z,59.80
2019-05-05T08:41:04.567Z,59.80
2019-05-05T08:43:34.765Z,59.80
2019-05-05T08:46:04.891Z,59.80
2019-05-05T08:48:34.223Z,59.80
2019-05-05T08:51:04.887Z,59.90
2019-05-05T08:53:44.119Z,59.90
2019-05-05T08:56:04.184Z,60.00
2019-05-05T08:58:34.399Z,60.10
2019-05-05T09:01:04.411Z,60.20
2019-05-05T09:03:33.732Z,60.10
2019-05-05T09:06:04.619Z,60.60
2019-05-05T09:08:34.725Z,59.90
2019-05-05T09:11:04.748Z,60.60
2019-05-05T09:13:34.109Z,59.70
2019-05-05T09:16:03.730Z,59.70
2019-05-05T09:18:33.975Z,59.90
2019-05-05T09:21:04.389Z,59.90
2019-05-05T09:23:35.029Z,59.80
2019-05-05T09:26:25.829Z,59.80
2019-05-05T09:29:13.809Z,59.80
2019-05-05T09:31:44.933Z,59.80
2019-05-05T09:34:14.659Z,59.80
2019-05-05T09:36:44.009Z,59.90
2019-05-05T09:39:13.871Z,60.00
2019-05-05T09:41:44.571Z,60.20
2019-05-05T09:44:13.670Z,60.00
2019-05-05T09:46:44.504Z,59.80
2019-05-05T09:49:14.102Z,59.70
2019-05-05T09:51:44.035Z,59.60
2019-05-05T09:54:15.061Z,59.60
2019-05-05T09:56:44.434Z,59.80
2019-05-05T09:59:13.588Z,59.80
2019-05-05T10:01:44.420Z,59.80
2019-05-05T10:04:13.925Z,59.70
2019-05-05T10:06:47.590Z,59.70
2019-05-05T10:09:13.884Z,59.80
2019-05-05T10:11:44.840Z,59.80
2019-05-05T10:14:14.374Z,59.90
2019-05-05T10:16:43.344Z,59.90
2019-05-05T10:19:13.928Z,60.10
2019-05-05T10:21:44.448Z,60.10
2019-05-05T10:24:28.590Z,60.00
2019-05-05T10:26:50.627Z,59.90
2019-05-05T10:29:19.466Z,59.90
2019-05-05T10:31:48.306Z,59.80
2019-05-05T10:34:18.170Z,59.60
2019-05-05T10:36:46.957Z,59.80
2019-05-05T10:39:27.309Z,59.80
2019-05-05T10:41:56.274Z,59.80
2019-05-05T10:44:25.162Z,59.80
2019-05-05T10:46:54.040Z,59.80
2019-05-05T10:49:24.403Z,59.90
2019-05-05T10:51:54.355Z,59.90
2019-05-05T10:54:23.730Z,59.80
2019-05-05T10:56:52.678Z,60.00
2019-05-05T10:59:23.674Z,60.10
2019-05-05T11:01:53.798Z,60.20
2019-05-05T11:04:24.351Z,60.00
2019-05-05T11:06:54.643Z,59.90
2019-05-05T11:09:24.404Z,59.90
2019-05-05T11:11:53.377Z,59.90
2019-05-05T11:14:22.212Z,59.80
2019-05-05T11:16:51.060Z,59.80
2019-05-05T11:19:19.922Z,60.10
2019-05-05T11:21:48.682Z,60.10
2019-05-05T11:24:17.492Z,59.90
2019-05-05T11:26:46.482Z,59.90
2019-05-05T11:29:15.250Z,59.90
2019-05-05T11:31:44.110Z,59.90
2019-05-05T11:34:24.693Z,59.90
2019-05-05T11:37:11.252Z,59.90
2019-05-05T11:39:40.018Z,59.90
2019-05-05T11:42:08.784Z,60.00
2019-05-05T11:44:37.540Z,60.00
2019-05-05T11:47:06.352Z,59.60
2019-05-05T11:49:35.184Z,60.00
2019-05-05T11:52:04.632Z,59.90
2019-05-05T11:54:33.528Z,59.90
2019-05-05T11:57:03.726Z,60.00
2019-05-05T11:59:32.860Z,60.10
2019-05-05T12:02:03.673Z,60.10
2019-05-05T12:04:32.255Z,60.00
2019-05-05T12:07:01.128Z,59.90
2019-05-05T12:09:45.832Z,59.70
2019-05-05T12:12:14.608Z,59.70
2019-05-05T12:14:43.372Z,59.70
2019-05-05T12:17:13.917Z,59.90
2019-05-05T12:19:43.481Z,59.90
2019-05-05T12:22:12.310Z,59.90
2019-05-05T12:24:44.343Z,59.90
2019-05-05T12:27:20.778Z,60.00
2019-05-05T12:29:55.902Z,59.90
2019-05-05T12:32:24.821Z,59.90
2019-05-05T12:34:53.856Z,60.00
2019-05-05T12:37:23.647Z,60.10
2019-05-05T12:39:54.437Z,60.10
2019-05-05T12:42:24.198Z,60.00
2019-05-05T12:45:04.411Z,60.00
2019-05-05T12:47:55.388Z,60.00
2019-05-05T12:50:24.685Z,60.00
2019-05-05T12:52:54.870Z,60.00
2019-05-05T12:55:32.289Z,60.10
2019-05-05T12:57:54.346Z,60.30
2019-05-05T13:00:23.397Z,60.20
2019-05-05T13:02:53.850Z,60.10
2019-05-05T13:05:23.708Z,60.00
2019-05-05T13:07:52.539Z,59.80
2019-05-05T13:10:21.781Z,59.70
2019-05-05T13:12:50.536Z,59.70
2019-05-05T13:15:19.292Z,59.80
2019-05-05T13:17:48.132Z,60.00
2019-05-05T13:20:29.094Z,59.90
2019-05-05T13:23:18.472Z,59.90
2019-05-05T13:26:06.364Z,59.90
2019-05-05T13:28:35.157Z,59.80
2019-05-05T13:31:04.639Z,59.80
2019-05-05T13:33:34.630Z,60.00
2019-05-05T13:36:04.335Z,60.00
2019-05-05T13:38:34.324Z,60.00
2019-05-05T13:41:03.793Z,60.00
2019-05-05T13:43:34.253Z,60.10
2019-05-05T13:46:08.776Z,60.00
2019-05-05T13:48:37.615Z,60.00
2019-05-05T13:51:07.299Z,60.00
2019-05-05T13:53:36.210Z,60.10
2019-05-05T13:56:11.791Z,60.20
2019-05-05T13:58:35.667Z,60.40
2019-05-05T14:01:04.519Z,60.30
2019-05-05T14:03:34.173Z,60.10
2019-05-05T14:06:04.709Z,60.00
2019-05-05T14:08:36.230Z,59.80
2019-05-05T14:11:04.186Z,59.80
2019-05-05T14:13:34.194Z,59.80
2019-05-05T14:16:03.870Z,60.10
2019-05-05T14:18:32.948Z,59.90
2019-05-05T14:21:01.719Z,60.40
2019-05-05T14:23:34.378Z,60.00
2019-05-05T14:26:03.854Z,59.90
2019-05-05T14:28:34.050Z,60.00
2019-05-05T14:31:14.683Z,60.00
2019-05-05T14:33:59.475Z,60.10
2019-05-05T14:36:48.929Z,60.30
2019-05-05T14:39:18.884Z,61.10
2019-05-05T14:41:47.641Z,60.00
2019-05-05T14:44:16.416Z,59.90
2019-05-05T14:46:45.268Z,59.90
2019-05-05T14:49:14.220Z,59.90
2019-05-05T14:51:46.254Z,59.80
2019-05-05T14:54:15.109Z,60.00
2019-05-05T14:56:44.154Z,60.00
2019-05-05T14:59:14.282Z,60.00
2019-05-05T15:01:44.721Z,60.00
2019-05-05T15:04:17.099Z,59.90
2019-05-05T15:06:54.445Z,60.00
2019-05-05T15:09:33.627Z,60.00
2019-05-05T15:12:14.365Z,60.00
2019-05-05T15:14:43.975Z,60.10
2019-05-05T15:17:22.105Z,60.20
2019-05-05T15:19:50.982Z,60.20
2019-05-05T15:22:19.955Z,60.00
2019-05-05T15:24:48.897Z,59.80
2019-05-05T15:27:17.641Z,59.80
2019-05-05T15:29:46.431Z,59.80
2019-05-05T15:32:15.362Z,59.70
2019-05-05T15:34:44.214Z,60.00
2019-05-05T15:37:14.444Z,59.90
2019-05-05T15:39:44.147Z,59.80
2019-05-05T15:42:13.221Z,59.80
2019-05-05T15:44:43.774Z,59.80
2019-05-05T15:47:12.861Z,59.90
2019-05-05T15:49:43.906Z,60.00
2019-05-05T15:52:13.750Z,60.10
2019-05-05T15:54:44.485Z,60.20
2019-05-05T15:57:14.907Z,60.10
2019-05-05T15:59:43.775Z,60.10
2019-05-05T16:02:13.341Z,60.10
2019-05-05T16:04:42.489Z,60.10
2019-05-05T16:07:11.247Z,60.10
2019-05-05T16:09:40.051Z,60.20
2019-05-05T16:12:08.943Z,60.30
2019-05-05T16:14:44.535Z,60.30
2019-05-05T16:17:26.813Z,60.40
2019-05-05T16:19:59.075Z,60.30
2019-05-05T16:22:35.001Z,60.10
2019-05-05T16:25:10.596Z,60.00
2019-05-05T16:27:39.939Z,60.00
2019-05-05T16:30:09.151Z,60.00
2019-05-05T16:32:37.916Z,60.10
2019-05-05T16:35:07.804Z,60.00
2019-05-05T16:37:36.834Z,60.00
2019-05-05T16:40:06.562Z,60.00
2019-05-05T16:42:35.334Z,60.00
2019-05-05T16:45:04.628Z,60.10
2019-05-05T16:47:33.764Z,60.20
2019-05-05T16:50:04.176Z,60.20
2019-05-05T16:52:41.079Z,60.40
2019-05-05T16:55:19.241Z,60.40
2019-05-05T16:57:48.156Z,60.30
2019-05-05T17:00:17.126Z,60.30
2019-05-05T17:02:45.975Z,60.20
2019-05-05T17:05:15.202Z,60.20
2019-05-05T17:07:44.018Z,60.20
2019-05-05T17:10:13.836Z,60.40
2019-05-05T17:12:44.309Z,60.30
2019-05-05T17:15:44.568Z,60.50
2019-05-05T17:18:35.263Z,60.40
2019-05-05T17:21:07.944Z,60.30
2019-05-05T17:23:36.806Z,60.10
2019-05-05T17:26:05.846Z,59.90
2019-05-05T17:28:34.645Z,59.90
2019-05-05T17:31:03.387Z,59.90
2019-05-05T17:33:33.877Z,60.00
2019-05-05T17:36:04.640Z,59.90
2019-05-05T17:38:34.097Z,60.00
2019-05-05T17:41:25.232Z,60.00
2019-05-05T17:44:16.082Z,60.00
2019-05-05T17:47:16.107Z,60.10
2019-05-05T17:50:00.048Z,60.20
2019-05-05T17:52:40.616Z,60.30
2019-05-05T17:55:28.895Z,60.20
2019-05-05T17:58:01.566Z,60.20
2019-05-05T18:00:29.892Z,60.20
2019-05-05T18:02:58.779Z,60.20
2019-05-05T18:05:45.354Z,60.20
2019-05-05T18:08:33.786Z,60.20
2019-05-05T18:11:07.333Z,60.30
2019-05-05T18:13:43.490Z,60.40
2019-05-05T18:16:14.024Z,60.40
2019-05-05T18:18:44.443Z,60.50
2019-05-05T18:21:14.219Z,59.90
2019-05-05T18:23:43.878Z,60.60
2019-05-05T18:26:13.654Z,59.90
2019-05-05T18:28:48.182Z,59.90
2019-05-05T18:31:17.384Z,59.90
2019-05-05T18:33:46.711Z,60.10
2019-05-05T18:36:15.655Z,60.10
2019-05-05T18:38:44.649Z,60.10
2019-05-05T18:41:20.649Z,60.20
2019-05-05T18:43:55.363Z,60.10
2019-05-05T18:46:24.475Z,60.10
2019-05-05T18:48:54.503Z,60.20
2019-05-05T18:51:24.113Z,60.30
2019-05-05T18:53:54.898Z,60.50
2019-05-05T18:56:23.978Z,60.40
2019-05-05T18:58:54.217Z,60.20
2019-05-05T19:01:45.385Z,60.10
2019-05-05T19:04:42.318Z,60.10
2019-05-05T19:07:24.285Z,60.10
2019-05-05T19:09:54.975Z,60.10
2019-05-05T19:12:24.372Z,60.30
2019-05-05T19:14:54.974Z,60.20
2019-05-05T19:17:23.728Z,60.20
2019-05-05T19:19:55.765Z,60.10
2019-05-05T19:22:29.068Z,60.10
2019-05-05T19:25:01.432Z,60.10
2019-05-05T19:27:30.319Z,60.10
2019-05-05T19:29:59.252Z,60.10
2019-05-05T19:32:28.108Z,60.40
2019-05-05T19:34:56.953Z,60.30
2019-05-05T19:37:25.726Z,60.30
2019-05-05T19:39:54.526Z,59.90
2019-05-05T19:42:23.954Z,59.90
2019-05-05T19:44:54.443Z,59.80
2019-05-05T19:47:24.608Z,59.80
2019-05-05T19:50:24.268Z,59.80
2019-05-05T19:52:53.916Z,59.80
2019-05-05T19:55:22.911Z,59.80
2019-05-05T19:57:53.916Z,59.90
2019-05-05T20:00:23.824Z,59.90
2019-05-05T20:03:02.250Z,59.90
2019-05-05T20:05:24.581Z,60.00
2019-05-05T20:07:55.352Z,60.20
2019-05-05T20:10:24.252Z,60.30
2019-05-05T20:12:53.984Z,60.10
2019-05-05T20:15:30.353Z,60.10
2019-05-05T20:17:59.196Z,60.50
2019-05-05T20:20:27.966Z,60.00
2019-05-05T20:22:56.743Z,60.00
2019-05-05T20:25:25.530Z,60.10
2019-05-05T20:27:56.056Z,60.10
2019-05-05T20:30:25.025Z,60.20
2019-05-05T20:33:05.621Z,60.40
2019-05-05T20:35:42.016Z,60.30
2019-05-05T20:38:14.302Z,60.20
2019-05-05T20:40:44.475Z,60.60
2019-05-05T20:43:14.342Z,60.10
2019-05-05T20:45:44.231Z,60.10
2019-05-05T20:48:13.442Z,60.10
2019-05-05T20:50:43.874Z,60.10
2019-05-05T20:53:13.639Z,60.10
2019-05-05T20:55:44.609Z,60.10
2019-05-05T20:58:14.135Z,60.10
2019-05-05T21:00:44.270Z,60.10
2019-05-05T21:03:14.161Z,60.10
2019-05-05T21:05:44.076Z,60.10
2019-05-05T21:08:14.121Z,60.10
2019-05-05T21:10:44.233Z,60.20
2019-05-05T21:13:14.384Z,60.10
2019-05-05T21:15:45.078Z,60.10
2019-05-05T21:18:14.460Z,60.40
2019-05-05T21:20:43.362Z,60.10
2019-05-05T21:23:17.031Z,60.10
2019-05-05T21:25:53.858Z,60.10
2019-05-05T21:28:24.092Z,60.20
2019-05-05T21:30:53.976Z,60.40
2019-05-05T21:33:23.924Z,60.40
2019-05-05T21:35:55.085Z,60.40
2019-05-05T21:38:23.450Z,60.30
2019-05-05T21:40:52.246Z,60.00
2019-05-05T21:43:21.032Z,59.90
2019-05-05T21:45:49.942Z,59.90
2019-05-05T21:48:18.746Z,59.90
2019-05-05T21:50:54.100Z,60.00
2019-05-05T21:53:36.340Z,60.00
2019-05-05T21:56:24.882Z,60.10
2019-05-05T21:58:54.342Z,60.00
2019-05-05T22:01:48.714Z,59.90
2019-05-05T22:04:14.977Z,60.00
2019-05-05T22:06:43.414Z,60.10
2019-05-05T22:09:14.667Z,60.10
2019-05-05T22:11:43.644Z,60.30
2019-05-05T22:14:14.026Z,60.30
2019-05-05T22:16:46.454Z,60.20
2019-05-05T22:19:15.477Z,60.20
2019-05-05T22:21:54.414Z,60.20
2019-05-05T22:24:26.144Z,60.20
2019-05-05T22:26:55.091Z,60.20
2019-05-05T22:29:25.145Z,60.40
2019-05-05T22:31:54.211Z,60.40
2019-05-05T22:34:24.072Z,60.40
2019-05-05T22:36:53.076Z,60.40
2019-05-05T22:39:24.115Z,60.20
2019-05-05T22:41:54.128Z,60.30
2019-05-05T22:44:24.342Z,59.90
2019-05-05T22:46:53.827Z,59.90
2019-05-05T22:49:24.176Z,59.90
2019-05-05T22:51:54.173Z,60.00
2019-05-05T22:54:24.110Z,60.00
2019-05-05T22:56:53.843Z,59.90
2019-05-05T22:59:24.205Z,60.00
2019-05-05T23:01:54.168Z,60.00
2019-05-05T23:04:41.007Z,60.00
2019-05-05T23:07:24.184Z,60.00
2019-05-05T23:09:53.877Z,60.10
2019-05-05T23:12:24.403Z,60.10
2019-05-05T23:14:54.488Z,60.20
2019-05-05T23:17:50.066Z,60.20
2019-05-05T23:21:06.160Z,60.10
2019-05-05T23:24:00.035Z,60.20
2019-05-05T23:26:30.827Z,60.20
2019-05-05T23:28:59.574Z,60.20
2019-05-05T23:31:33.777Z,60.40
2019-05-05T23:34:03.959Z,61.10
2019-05-05T23:36:33.962Z,60.40
2019-05-05T23:39:05.287Z,60.30
2019-05-05T23:41:34.834Z,59.90
2019-05-05T23:44:04.131Z,59.90
2019-05-05T23:46:34.873Z,59.90
2019-05-05T23:49:04.320Z,59.90
2019-05-05T23:51:34.746Z,60.00
2019-05-05T23:54:04.263Z,60.00
2019-05-05T23:56:35.002Z,60.00
2019-05-05T23:59:04.333Z,60.00
